Flight Track Log - Related Links

Times and Time Zones

All times are in EDT time to prevent confusion due to time zone crossing. See the QXE2593 flight status page for this flight to view local times or setup timezone preferences in your user account.

Time Position Orientation Groundspeed Altitude Reporting Facility
EDT Latitude Longitude Course Direction KTS MPH feet Rate Location/Type
Tue 12:04:00 AM 45.3967 -121.9192 130° Southeast  Level Estimated
Tue 12:05:00 AM 45.3643 -121.8066 125° Southeast  Level Estimated
Tue 12:06:00 AM 45.3318 -121.6943 130° Southeast  Level Estimated
Tue 12:07:00 AM 45.2991 -121.5820 125° Southeast  Level Estimated
Tue 12:08:00 AM 45.2664 -121.4699 109° East  Level Estimated
Tue 12:09:00 AM 45.2336 -121.3579 108° East  Level Estimated
Tue 12:10:00 AM 45.1509 -121.3277 166° South  Level FlightAware Approximate
Tue 12:11:00 AM 45.0682 -121.2975 166° South  Level FlightAware Approximate
Tue 12:12:00 AM 45.0379 -121.1845 108° East  Level Estimated
Tue 12:13:00 AM 44.9782 -121.0981 134° Southeast  Level FlightAware Approximate
Tue 12:14:00 AM 44.9485 -120.9849 101° East  Level Estimated
Tue 12:15:00 AM 44.9186 -120.8719 107° East  Level Estimated
Tue 12:16:00 AM 44.8918 -120.7574 108° East  Level FlightAware Approximate
Tue 12:17:00 AM 44.8649 -120.6430 108° East  Level FlightAware Approximate
Tue 12:18:00 AM 44.8379 -120.5288 108° East  Level FlightAware Approximate
Tue 12:19:00 AM 44.8107 -120.4146 108° East  Level FlightAware Approximate
Tue 12:20:00 AM 44.7800 -120.3023 109° East  Level Estimated
Tue 12:21:00 AM 44.7525 -120.1884 109° East  Level FlightAware Approximate
Tue 12:22:00 AM 44.7250 -120.0746 109° East  Level FlightAware Approximate
Tue 12:23:00 AM 44.6973 -119.9609 109° East  Level FlightAware Approximate
Tue 12:24:00 AM 44.6696 -119.8473 109° East  Level FlightAware Approximate
Tue 12:25:00 AM 44.6379 -119.7358 112° Southeast  Level Estimated
Tue 12:26:00 AM 44.6071 -119.6239 111° Southeast  Level FlightAware Approximate
Tue 12:27:00 AM 44.5762 -119.5121 111° Southeast  Level FlightAware Approximate
Tue 12:28:00 AM 44.5452 -119.4004 111° Southeast  Level FlightAware Approximate
Tue 12:29:00 AM 44.5141 -119.2888 111° Southeast  Level FlightAware Approximate
Tue 12:30:00 AM 44.4829 -119.1774 111° Southeast  Level FlightAware Approximate
Tue 12:31:00 AM 44.4516 -119.0660 111° Southeast  Level FlightAware Approximate
Tue 12:32:00 AM 44.4202 -118.9548 112° Southeast  Level FlightAware Approximate
Tue 12:33:00 AM 44.3893 -118.8462 112° Southeast  Level FlightAware Approximate
Tue 12:34:00 AM 44.3566 -118.7389 117° Southeast  Level FlightAware Approximate
Tue 12:35:00 AM 44.3188 -118.6348 117° Southeast  Level FlightAware Approximate
Tue 12:36:00 AM 44.2837 -118.5291 113° Southeast  Level FlightAware Approximate
Tue 12:37:00 AM 44.2514 -118.4216 113° Southeast  Level FlightAware Approximate
Tue 12:38:00 AM 44.2189 -118.3142 113° Southeast  Level FlightAware Approximate
Tue 12:39:00 AM 44.1864 -118.2070 113° Southeast  Level FlightAware Approximate
Tue 12:40:00 AM 44.1566 -118.0994 106° East  Level FlightAware Approximate
Tue 12:41:00 AM 44.1229 -117.9942 118° Southeast  Level FlightAware Approximate
Tue 12:42:00 AM 44.0873 -117.8899 112° Southeast  Level FlightAware Approximate
Tue 12:43:00 AM 44.0560 -117.7828 112° Southeast  Level FlightAware Approximate
Tue 12:44:00 AM 44.0246 -117.6758 112° Southeast  Level FlightAware Approximate
Tue 12:45:00 AM 43.9931 -117.5690 112° Southeast  Level FlightAware Approximate
Tue 12:46:00 AM 43.9616 -117.4623 112° Southeast  Level FlightAware Approximate
Tue 12:47:00 AM 43.9294 -117.3540 112° Southeast  Level FlightAware Approximate
Tue 12:48:00 AM 43.8941 -117.2360 112° Southeast  Level FlightAware Approximate
Tue 12:49:00 AM 43.8555 -117.1202 117° Southeast  Level FlightAware Approximate
Tue 12:50:00 AM 43.8134 -117.0068 115° Southeast  Level FlightAware Approximate
Tue 12:51:00 AM 43.7748 -116.8911 115° Southeast  Level FlightAware Approximate
Tue 12:52:00 AM 43.7415 -116.7725 113° Southeast  Level FlightAware Approximate
Tue 12:53:00 AM 43.7050 -116.6556 113° Southeast  Level FlightAware Approximate
Tue 12:54:00 AM 43.6684 -116.5389 113° Southeast  Level FlightAware Approximate
Tue 12:55:00 AM 43.6243 -116.4273 119° Southeast  Level FlightAware Approximate
Tue 12:56:00 AM 43.5825 -116.3142 115° Southeast  Level FlightAware Approximate
Tue 12:57:00 AM 43.5644 -116.2229 90° East  Level Estimated
Tue 12:58:00 AM 43.5644 -116.2229 270° West  Level Estimated
Tue 12:59:00 AM 43.5644 -116.2229 270° West  Level Estimated
Tue 01:00:00 AM 43.5644 -116.2229 270° West  Level Estimated
Tue 01:01:00 AM 43.5644 -116.2229 270° West  Level Estimated
Tue 01:02:00 AM 43.5644 -116.2229 270° West  Level Estimated
Tue 01:03:00 AM 43.5644 -116.2229 270° West  Level Estimated
Tue 01:04:00 AM 43.5644 -116.2229 270° West  Level Estimated

Login

Don't have an account? Register now (free) for customized features, flight alerts, and more!